createdAt,value
2024-01-11T00:01:37.545Z,97391.19
2024-01-11T00:04:04.585Z,97390.25
2024-01-11T00:06:31.590Z,97384.56
2024-01-11T00:08:58.522Z,97390.25
2024-01-11T00:11:25.397Z,97395.41
2024-01-11T00:13:52.344Z,97386.63
2024-01-11T00:16:19.321Z,97389.75
2024-01-11T00:18:46.459Z,97389.75
2024-01-11T00:21:13.432Z,97391.28
2024-01-11T00:23:40.371Z,97390.84
2024-01-11T00:26:07.348Z,97388.84
2024-01-11T00:28:34.207Z,97389.19
2024-01-11T00:31:01.140Z,97380.97
2024-01-11T00:33:28.181Z,97383.81
2024-01-11T00:35:55.420Z,97391.97
2024-01-11T00:38:22.378Z,97386.50
2024-01-11T00:40:50.019Z,97384.16
2024-01-11T00:43:17.436Z,97387.47
2024-01-11T00:45:47.082Z,97393.56
2024-01-11T00:48:14.041Z,97396.06
2024-01-11T00:50:41.255Z,97390.59
2024-01-11T00:53:09.547Z,97398.25
2024-01-11T00:55:36.440Z,97393.09
2024-01-11T00:58:03.572Z,97389.97
2024-01-11T01:00:30.751Z,97390.13
2024-01-11T01:02:57.659Z,97399.84
2024-01-11T01:05:24.628Z,97399.84
2024-01-11T01:07:51.729Z,97406.50
2024-01-11T01:10:18.660Z,97399.50
2024-01-11T01:12:45.530Z,97401.31
2024-01-11T01:15:12.482Z,97396.81
2024-01-11T01:17:39.463Z,97391.13
2024-01-11T01:20:07.892Z,97397.44
2024-01-11T01:22:34.838Z,97407.34
2024-01-11T01:25:01.734Z,97414.81
2024-01-11T01:27:28.623Z,97410.13
2024-01-11T01:29:55.585Z,97407.41
2024-01-11T01:32:22.757Z,97410.91
2024-01-11T01:34:49.869Z,97417.72
2024-01-11T01:37:16.822Z,97422.56
2024-01-11T01:39:43.832Z,97416.41
2024-01-11T01:42:10.837Z,97421.38
2024-01-11T01:44:37.984Z,97421.56
2024-01-11T01:47:06.115Z,97413.50
2024-01-11T01:49:33.481Z,97422.50
2024-01-11T01:52:00.554Z,97421.59
2024-01-11T01:54:28.323Z,97415.50
2024-01-11T01:56:55.612Z,97415.28
2024-01-11T01:59:23.961Z,97420.97
2024-01-11T02:01:51.229Z,97416.78
2024-01-11T02:04:18.194Z,97413.97
2024-01-11T02:06:47.937Z,97414.56
2024-01-11T02:09:16.041Z,97410.69
2024-01-11T02:11:43.079Z,97411.06
2024-01-11T02:14:11.611Z,97410.69
2024-01-11T02:16:39.015Z,97409.25
2024-01-11T02:19:08.879Z,97407.22
2024-01-11T02:21:36.081Z,97402.81
2024-01-11T02:24:07.711Z,97405.97
2024-01-11T02:26:35.472Z,97409.09
2024-01-11T02:29:02.987Z,97404.94
2024-01-11T02:31:29.916Z,97407.31
2024-01-11T02:33:57.721Z,97414.75
2024-01-11T02:36:26.288Z,97416.41
2024-01-11T02:38:54.444Z,97413.84
2024-01-11T02:41:22.831Z,97419.06
2024-01-11T02:43:50.666Z,97409.38
2024-01-11T02:46:18.688Z,97415.56
2024-01-11T02:48:45.977Z,97415.03
2024-01-11T02:51:13.081Z,97411.94
2024-01-11T02:53:40.069Z,97411.88
2024-01-11T02:56:07.102Z,97406.41
2024-01-11T02:58:34.004Z,97401.34
2024-01-11T03:01:01.066Z,97396.66
2024-01-11T03:03:27.997Z,97403.06
2024-01-11T03:05:55.086Z,97395.72
2024-01-11T03:08:22.201Z,97393.81
2024-01-11T03:10:49.136Z,97404.47
2024-01-11T03:13:16.065Z,97389.03
2024-01-11T03:15:42.925Z,97386.06
2024-01-11T03:18:10.685Z,97385.63
2024-01-11T03:20:37.742Z,97382.66
2024-01-11T03:23:04.827Z,97378.75
2024-01-11T03:25:31.748Z,97377.09
2024-01-11T03:28:01.631Z,97376.75
2024-01-11T03:30:29.368Z,97376.44
2024-01-11T03:32:56.392Z,97366.81
2024-01-11T03:35:23.479Z,97368.13
2024-01-11T03:37:50.409Z,97364.38
2024-01-11T03:40:17.372Z,97361.53
2024-01-11T03:42:45.007Z,97354.72
2024-01-11T03:45:12.064Z,97352.16
2024-01-11T03:47:39.138Z,97361.00
2024-01-11T03:50:06.768Z,97358.59
2024-01-11T03:52:33.713Z,97362.84
2024-01-11T03:55:00.627Z,97361.00
2024-01-11T03:57:27.585Z,97358.25
2024-01-11T03:59:54.597Z,97369.28
2024-01-11T04:02:21.577Z,97375.69
2024-01-11T04:04:48.813Z,97374.78
2024-01-11T04:07:15.706Z,97377.09
2024-01-11T04:09:42.656Z,97363.34
2024-01-11T04:12:09.918Z,97375.13
2024-01-11T04:14:41.400Z,97375.28
2024-01-11T04:17:08.378Z,97381.91
2024-01-11T04:19:35.310Z,97380.28
2024-01-11T04:22:02.214Z,97378.13
2024-01-11T04:24:29.076Z,97373.31
2024-01-11T04:26:55.964Z,97375.81
2024-01-11T04:29:22.842Z,97373.81
2024-01-11T04:31:49.947Z,97382.25
2024-01-11T04:34:16.878Z,97380.63
2024-01-11T04:36:43.819Z,97378.94
2024-01-11T04:39:10.700Z,97387.72
2024-01-11T04:41:40.397Z,97382.94
2024-01-11T04:44:07.492Z,97379.94
2024-01-11T04:46:34.423Z,97367.16
2024-01-11T04:49:01.407Z,97370.00
2024-01-11T04:51:28.343Z,97372.66
2024-01-11T04:53:55.646Z,97368.47
2024-01-11T04:56:22.554Z,97368.84
2024-01-11T04:58:49.575Z,97381.69
2024-01-11T05:01:18.364Z,97378.94
2024-01-11T05:03:47.162Z,97380.78
2024-01-11T05:06:22.878Z,97384.09
2024-01-11T05:08:55.599Z,97396.38
2024-01-11T05:11:25.509Z,97384.81
2024-01-11T05:13:53.388Z,97384.09
2024-01-11T05:16:26.316Z,97378.56
2024-01-11T05:18:57.304Z,97375.16
2024-01-11T05:21:25.549Z,97363.06
2024-01-11T05:23:53.637Z,97369.84
2024-01-11T05:26:21.711Z,97370.69
2024-01-11T05:28:48.913Z,97371.88
2024-01-11T05:31:17.022Z,97362.91
2024-01-11T05:33:45.317Z,97366.53
2024-01-11T05:36:12.676Z,97368.75
2024-01-11T05:38:40.642Z,97371.69
2024-01-11T05:41:08.864Z,97367.06
2024-01-11T05:43:35.998Z,97377.31
2024-01-11T05:46:03.194Z,97380.13
2024-01-11T05:48:30.223Z,97391.16
2024-01-11T05:50:57.627Z,97392.41
2024-01-11T05:53:26.042Z,97395.88
2024-01-11T05:55:55.072Z,97404.50
2024-01-11T05:58:22.542Z,97413.28
2024-01-11T06:00:49.567Z,97420.94
2024-01-11T06:03:16.649Z,97419.09
2024-01-11T06:05:43.789Z,97415.69
2024-01-11T06:08:10.946Z,97411.97
2024-01-11T06:10:38.524Z,97402.03
2024-01-11T06:13:05.477Z,97406.25
2024-01-11T06:15:33.053Z,97410.16
2024-01-11T06:18:00.062Z,97408.81
2024-01-11T06:20:27.106Z,97419.75
2024-01-11T06:22:54.015Z,97420.75
2024-01-11T06:25:21.002Z,97425.47
2024-01-11T06:27:48.672Z,97421.25
2024-01-11T06:30:15.889Z,97428.13
2024-01-11T06:32:42.947Z,97424.72
2024-01-11T06:35:10.658Z,97427.28
2024-01-11T06:37:37.710Z,97434.84
2024-01-11T06:40:05.221Z,97421.16
2024-01-11T06:42:32.377Z,97421.91
2024-01-11T06:44:59.358Z,97433.00
2024-01-11T06:47:27.147Z,97441.47
2024-01-11T06:49:54.823Z,97462.50
2024-01-11T06:52:21.749Z,97462.50
2024-01-11T06:54:48.661Z,97469.97
2024-01-11T06:57:15.585Z,97454.81
2024-01-11T06:59:42.579Z,97449.75
2024-01-11T07:02:09.581Z,97444.78
2024-01-11T07:04:36.537Z,97441.97
2024-01-11T07:07:05.699Z,97435.50
2024-01-11T07:09:32.812Z,97430.38
2024-01-11T07:11:59.743Z,97433.09
2024-01-11T07:14:26.661Z,97433.16
2024-01-11T07:16:53.591Z,97415.44
2024-01-11T07:19:20.556Z,97424.41
2024-01-11T07:21:47.732Z,97433.09
2024-01-11T07:24:15.023Z,97439.13
2024-01-11T07:26:42.070Z,97444.09
2024-01-11T07:29:09.050Z,97447.91
2024-01-11T07:31:35.963Z,97450.56
2024-01-11T07:34:03.152Z,97458.34
2024-01-11T07:36:30.146Z,97470.28
2024-01-11T07:38:57.713Z,97463.81
2024-01-11T07:41:24.741Z,97463.41
2024-01-11T07:43:54.598Z,97468.28
2024-01-11T07:46:29.598Z,97469.53
2024-01-11T07:49:04.611Z,97475.59
2024-01-11T07:51:32.143Z,97479.97
2024-01-11T07:53:59.938Z,97482.53
2024-01-11T07:56:27.614Z,97500.00
2024-01-11T07:58:54.584Z,97488.91
2024-01-11T08:01:21.588Z,97493.94
2024-01-11T08:03:48.924Z,97487.34
2024-01-11T08:06:16.230Z,97493.19
2024-01-11T08:08:43.931Z,97497.50
2024-01-11T08:11:13.446Z,97509.13
2024-01-11T08:13:40.437Z,97521.38
2024-01-11T08:16:10.843Z,97536.63
2024-01-11T08:18:38.060Z,97545.75
2024-01-11T08:21:10.539Z,97532.47
2024-01-11T08:23:49.891Z,97528.09
2024-01-11T08:26:19.916Z,97519.97
2024-01-11T08:28:47.115Z,97523.94
2024-01-11T08:31:14.155Z,97546.91
2024-01-11T08:33:41.666Z,97539.63
2024-01-11T08:36:08.980Z,97547.16
2024-01-11T08:38:37.190Z,97547.56
2024-01-11T08:41:04.940Z,97543.09
2024-01-11T08:43:32.197Z,97552.72
2024-01-11T08:45:59.829Z,97546.53
2024-01-11T08:48:27.890Z,97550.22
2024-01-11T08:50:55.050Z,97557.38
2024-01-11T08:53:22.762Z,97562.78
2024-01-11T08:55:49.749Z,97554.31
2024-01-11T08:58:16.717Z,97553.75
2024-01-11T09:00:45.196Z,97553.09
2024-01-11T09:03:13.711Z,97531.06
2024-01-11T09:05:41.123Z,97526.94
2024-01-11T09:08:09.155Z,97529.00
2024-01-11T09:10:36.170Z,97528.34
2024-01-11T09:13:03.370Z,97523.75
2024-01-11T09:15:30.706Z,97530.53
2024-01-11T09:17:57.758Z,97528.06
2024-01-11T09:20:24.830Z,97524.81
2024-01-11T09:22:51.750Z,97540.72
2024-01-11T09:25:18.730Z,97526.25
2024-01-11T09:27:45.617Z,97525.03
2024-01-11T09:30:13.271Z,97532.91
2024-01-11T09:32:40.418Z,97534.84
2024-01-11T09:35:07.785Z,97534.22
2024-01-11T09:37:34.710Z,97532.66
2024-01-11T09:40:04.964Z,97545.44
2024-01-11T09:42:32.169Z,97538.47
2024-01-11T09:45:01.258Z,97536.59
2024-01-11T09:47:29.136Z,97535.09
2024-01-11T09:49:58.048Z,97533.94
2024-01-11T09:52:27.076Z,97524.63
2024-01-11T09:54:54.000Z,97527.69
2024-01-11T09:57:29.723Z,97512.84
2024-01-11T09:59:59.040Z,97513.44
2024-01-11T10:02:29.735Z,97513.28
2024-01-11T10:04:57.032Z,97516.28
2024-01-11T10:07:25.905Z,97516.34
2024-01-11T10:09:53.520Z,97522.94
2024-01-11T10:12:24.240Z,97513.00
2024-01-11T10:14:51.513Z,97509.50
2024-01-11T10:17:21.741Z,97510.06
2024-01-11T10:19:51.395Z,97506.63
2024-01-11T10:22:18.591Z,97503.41
2024-01-11T10:24:47.686Z,97509.59
2024-01-11T10:27:14.614Z,97501.47
2024-01-11T10:29:41.669Z,97505.13
2024-01-11T10:32:10.596Z,97500.28
2024-01-11T10:34:41.075Z,97504.34
2024-01-11T10:37:08.261Z,97490.69
2024-01-11T10:39:36.543Z,97484.00
2024-01-11T10:42:08.853Z,97474.34
2024-01-11T10:44:37.724Z,97483.00
2024-01-11T10:47:08.063Z,97480.59
2024-01-11T10:49:37.217Z,97486.19
2024-01-11T10:52:09.502Z,97485.34
2024-01-11T10:54:38.022Z,97473.22
2024-01-11T10:57:06.719Z,97474.88
2024-01-11T10:59:36.754Z,97465.59
2024-01-11T11:02:13.824Z,97475.53
2024-01-11T11:04:43.319Z,97477.81
2024-01-11T11:07:12.743Z,97478.97
2024-01-11T11:09:44.965Z,97472.16
2024-01-11T11:12:12.353Z,97476.97
2024-01-11T11:14:40.131Z,97479.75
2024-01-11T11:17:07.358Z,97471.94
2024-01-11T11:19:34.335Z,97473.88
2024-01-11T11:22:06.124Z,97473.09
2024-01-11T11:24:36.575Z,97465.06
2024-01-11T11:27:04.778Z,97480.16
2024-01-11T11:29:31.759Z,97481.78
2024-01-11T11:31:58.719Z,97482.63
2024-01-11T11:34:53.638Z,97495.72
2024-01-11T11:37:26.522Z,97475.72
2024-01-11T11:39:53.522Z,97467.69
2024-01-11T11:42:24.393Z,97473.09
2024-01-11T11:44:52.137Z,97474.06
2024-01-11T11:47:24.067Z,97459.53
2024-01-11T11:50:09.159Z,97456.97
2024-01-11T11:52:38.635Z,97452.84
2024-01-11T11:55:08.020Z,97453.34
2024-01-11T11:57:36.816Z,97444.28
2024-01-11T12:00:08.061Z,97455.28
2024-01-11T12:02:37.503Z,97453.91
2024-01-11T12:05:05.321Z,97443.88
2024-01-11T12:07:33.104Z,97434.28
2024-01-11T12:10:00.229Z,97432.88
2024-01-11T12:12:27.323Z,97442.72
2024-01-11T12:14:55.106Z,97457.13
2024-01-11T12:17:22.292Z,97464.31
2024-01-11T12:19:49.652Z,97470.31
2024-01-11T12:22:16.746Z,97466.16
2024-01-11T12:24:43.624Z,97463.13
2024-01-11T12:27:10.622Z,97452.22
2024-01-11T12:29:48.219Z,97446.41
2024-01-11T12:32:20.064Z,97445.38
2024-01-11T12:34:48.050Z,97446.31
2024-01-11T12:37:16.757Z,97441.41
2024-01-11T12:39:43.685Z,97428.59
2024-01-11T12:42:10.625Z,97427.00
2024-01-11T12:44:38.838Z,97438.09
2024-01-11T12:47:06.618Z,97441.03
2024-01-11T12:49:33.717Z,97435.53
2024-01-11T12:52:00.627Z,97440.44
2024-01-11T12:54:28.642Z,97446.19
2024-01-11T12:56:55.693Z,97432.88
2024-01-11T12:59:27.182Z,97434.78
2024-01-11T13:01:54.377Z,97435.72
2024-01-11T13:04:21.495Z,97438.81
2024-01-11T13:06:48.690Z,97430.38
2024-01-11T13:09:15.681Z,97430.81
2024-01-11T13:11:42.780Z,97439.50
2024-01-11T13:14:15.688Z,97438.09
2024-01-11T13:16:42.770Z,97434.91
2024-01-11T13:19:19.863Z,97442.59
2024-01-11T13:21:53.878Z,97443.38
2024-01-11T13:24:20.803Z,97438.84
2024-01-11T13:26:47.746Z,97441.97
2024-01-11T13:29:14.754Z,97441.81
2024-01-11T13:31:42.437Z,97444.28
2024-01-11T13:34:09.463Z,97440.03
2024-01-11T13:36:36.357Z,97420.97
2024-01-11T13:39:03.916Z,97434.78
2024-01-11T13:41:30.871Z,97433.81
2024-01-11T13:43:57.780Z,97423.13
2024-01-11T13:46:24.721Z,97423.78
2024-01-11T13:48:51.805Z,97431.16
2024-01-11T13:51:18.897Z,97434.13
2024-01-11T13:53:46.020Z,97436.53
2024-01-11T13:56:13.009Z,97432.50
2024-01-11T13:58:40.390Z,97423.25
2024-01-11T14:01:08.700Z,97425.09
2024-01-11T14:03:35.627Z,97431.53
2024-01-11T14:06:03.783Z,97437.31
2024-01-11T14:08:30.961Z,97446.66
2024-01-11T14:10:58.096Z,97451.63
2024-01-11T14:13:25.109Z,97455.97
2024-01-11T14:15:52.434Z,97471.25
2024-01-11T14:18:20.396Z,97470.34
2024-01-11T14:20:47.815Z,97477.69
2024-01-11T14:23:14.893Z,97480.16
2024-01-11T14:25:42.464Z,97472.09
2024-01-11T14:28:09.332Z,97469.91
2024-01-11T14:30:36.477Z,97480.75
2024-01-11T14:33:04.014Z,97475.31
2024-01-11T14:35:32.484Z,97471.72
2024-01-11T14:37:59.586Z,97465.84
2024-01-11T14:40:28.401Z,97473.75
2024-01-11T14:42:55.687Z,97474.56
2024-01-11T14:45:22.636Z,97479.06
2024-01-11T14:47:49.804Z,97474.75
2024-01-11T14:50:17.163Z,97478.69
2024-01-11T14:52:44.884Z,97471.03
2024-01-11T14:55:12.027Z,97460.50
2024-01-11T14:57:41.506Z,97452.25
2024-01-11T15:00:11.420Z,97455.16
2024-01-11T15:02:38.635Z,97465.22
2024-01-11T15:05:06.419Z,97465.56
2024-01-11T15:07:33.661Z,97459.25
2024-01-11T15:10:00.650Z,97464.63
2024-01-11T15:12:27.541Z,97464.78
2024-01-11T15:14:54.792Z,97457.53
2024-01-11T15:17:22.179Z,97460.66
2024-01-11T15:19:49.323Z,97476.38
2024-01-11T15:22:16.998Z,97481.50
2024-01-11T15:24:44.261Z,97497.41
2024-01-11T15:27:11.484Z,97492.81
2024-01-11T15:29:38.893Z,97497.25
2024-01-11T15:32:06.703Z,97494.25
2024-01-11T15:34:34.184Z,97488.03
2024-01-11T15:37:01.189Z,97487.66
2024-01-11T15:39:29.586Z,97499.88
2024-01-11T15:41:59.433Z,97503.00
2024-01-11T15:44:29.068Z,97498.72
2024-01-11T15:46:58.075Z,97501.66
2024-01-11T15:49:25.594Z,97509.47
2024-01-11T15:51:56.767Z,97507.91
2024-01-11T15:54:24.015Z,97504.25
2024-01-11T15:56:51.942Z,97513.59
2024-01-11T15:59:18.998Z,97521.53
2024-01-11T16:01:56.358Z,97518.28
2024-01-11T16:04:30.544Z,97524.47
2024-01-11T16:06:57.734Z,97515.53
2024-01-11T16:09:24.868Z,97514.25
2024-01-11T16:11:52.151Z,97524.09
2024-01-11T16:14:19.495Z,97515.25
2024-01-11T16:16:46.602Z,97509.56
2024-01-11T16:19:13.600Z,97510.09
2024-01-11T16:21:40.845Z,97509.19
2024-01-11T16:24:08.698Z,97517.13
2024-01-11T16:26:36.481Z,97517.75
2024-01-11T16:29:03.979Z,97517.84
2024-01-11T16:31:31.326Z,97516.53
2024-01-11T16:33:58.588Z,97522.78
2024-01-11T16:36:25.701Z,97527.41
2024-01-11T16:38:53.331Z,97524.75
2024-01-11T16:41:20.876Z,97525.41
2024-01-11T16:43:47.911Z,97533.50
2024-01-11T16:46:23.344Z,97533.13
2024-01-11T16:48:51.917Z,97549.69
2024-01-11T16:51:19.257Z,97559.44
2024-01-11T16:53:47.220Z,97559.06
2024-01-11T16:56:14.362Z,97568.66
2024-01-11T16:58:42.697Z,97561.28
2024-01-11T17:01:11.269Z,97556.84
2024-01-11T17:03:38.383Z,97560.72
2024-01-11T17:06:06.066Z,97557.81
2024-01-11T17:08:33.552Z,97566.44
2024-01-11T17:11:01.024Z,97564.25
2024-01-11T17:13:28.041Z,97549.69
2024-01-11T17:15:55.199Z,97543.59
2024-01-11T17:18:22.277Z,97559.06
2024-01-11T17:20:49.506Z,97547.84
2024-01-11T17:23:18.277Z,97540.47
2024-01-11T17:25:45.533Z,97550.72
2024-01-11T17:28:12.538Z,97539.13
2024-01-11T17:30:39.595Z,97532.94
2024-01-11T17:33:06.659Z,97538.56
2024-01-11T17:35:33.781Z,97551.06
2024-01-11T17:38:00.714Z,97547.47
2024-01-11T17:40:31.012Z,97542.69
2024-01-11T17:42:59.845Z,97538.81
2024-01-11T17:45:26.806Z,97534.50
2024-01-11T17:47:54.530Z,97535.69
2024-01-11T17:50:22.704Z,97540.56
2024-01-11T17:52:51.645Z,97542.53
2024-01-11T17:55:19.248Z,97543.97
2024-01-11T17:57:46.556Z,97541.56
2024-01-11T18:00:14.402Z,97546.56
2024-01-11T18:02:41.487Z,97554.47
2024-01-11T18:05:10.009Z,97570.41
2024-01-11T18:07:37.162Z,97560.94
2024-01-11T18:10:04.387Z,97561.81
2024-01-11T18:12:31.270Z,97571.44
2024-01-11T18:14:58.642Z,97573.13
2024-01-11T18:17:25.722Z,97570.69
2024-01-11T18:19:52.790Z,97565.50
2024-01-11T18:22:19.914Z,97564.47
2024-01-11T18:24:46.839Z,97567.59
2024-01-11T18:27:13.695Z,97575.47
2024-01-11T18:29:40.657Z,97572.13
2024-01-11T18:32:08.034Z,97572.13
2024-01-11T18:34:35.211Z,97567.34
2024-01-11T18:37:02.102Z,97572.88
2024-01-11T18:39:29.026Z,97569.97
2024-01-11T18:41:58.704Z,97571.50
2024-01-11T18:44:26.708Z,97572.50
2024-01-11T18:46:53.838Z,97568.56
2024-01-11T18:49:21.058Z,97583.03
2024-01-11T18:51:48.032Z,97583.94
2024-01-11T18:54:15.065Z,97578.88
2024-01-11T18:56:42.730Z,97574.34
2024-01-11T18:59:09.810Z,97574.53
2024-01-11T19:01:36.738Z,97574.34
2024-01-11T19:04:04.313Z,97575.47
2024-01-11T19:06:31.575Z,97571.38
2024-01-11T19:08:59.117Z,97583.19
2024-01-11T19:11:26.995Z,97579.31
2024-01-11T19:13:53.909Z,97579.25
2024-01-11T19:16:20.813Z,97583.41
2024-01-11T19:18:50.959Z,97585.19
2024-01-11T19:21:19.662Z,97600.88
2024-01-11T19:23:46.738Z,97588.44
2024-01-11T19:26:13.856Z,97592.97
2024-01-11T19:28:40.744Z,97595.00
2024-01-11T19:31:07.840Z,97595.56
2024-01-11T19:33:36.093Z,97596.19
2024-01-11T19:36:03.702Z,97579.34
2024-01-11T19:38:30.806Z,97576.00
2024-01-11T19:40:57.756Z,97570.41
2024-01-11T19:43:24.630Z,97574.63
2024-01-11T19:45:51.568Z,97578.22
2024-01-11T19:48:18.764Z,97560.38
2024-01-11T19:50:48.346Z,97563.66
2024-01-11T19:53:17.214Z,97567.06
2024-01-11T19:55:44.309Z,97561.09
2024-01-11T19:58:11.814Z,97554.75
2024-01-11T20:00:42.076Z,97561.84
2024-01-11T20:03:09.499Z,97550.78
2024-01-11T20:05:36.621Z,97551.34
2024-01-11T20:08:04.398Z,97551.19
2024-01-11T20:10:31.801Z,97557.97
2024-01-11T20:12:58.815Z,97556.88
2024-01-11T20:15:25.731Z,97567.53
2024-01-11T20:17:52.773Z,97586.56
2024-01-11T20:20:19.773Z,97598.28
2024-01-11T20:22:46.710Z,97604.72
2024-01-11T20:25:13.734Z,97601.22
2024-01-11T20:27:40.668Z,97604.28
2024-01-11T20:30:11.830Z,97606.38
2024-01-11T20:32:39.501Z,97601.03
2024-01-11T20:35:07.118Z,97603.19
2024-01-11T20:37:33.968Z,97595.63
2024-01-11T20:40:01.526Z,97604.38
2024-01-11T20:42:28.469Z,97611.56
2024-01-11T20:44:55.519Z,97618.44
2024-01-11T20:47:23.667Z,97608.47
2024-01-11T20:49:51.824Z,97623.50
2024-01-11T20:52:20.874Z,97621.06
2024-01-11T20:54:50.033Z,97625.81
2024-01-11T20:57:18.591Z,97616.50
2024-01-11T20:59:45.504Z,97603.72
2024-01-11T21:02:12.652Z,97605.38
2024-01-11T21:04:39.600Z,97598.22
2024-01-11T21:07:06.973Z,97603.84
2024-01-11T21:09:34.964Z,97604.75
2024-01-11T21:12:02.087Z,97599.88
2024-01-11T21:14:29.546Z,97590.53
2024-01-11T21:16:56.425Z,97598.56
2024-01-11T21:19:23.506Z,97591.50
2024-01-11T21:21:51.793Z,97610.59
2024-01-11T21:24:21.076Z,97620.13
2024-01-11T21:26:48.510Z,97614.09
2024-01-11T21:29:15.578Z,97620.03
2024-01-11T21:31:42.551Z,97609.03
2024-01-11T21:34:09.541Z,97608.03
2024-01-11T21:36:37.611Z,97622.22
2024-01-11T21:39:04.763Z,97624.28
2024-01-11T21:41:31.980Z,97629.94
2024-01-11T21:44:00.584Z,97618.28
2024-01-11T21:46:28.534Z,97629.69
2024-01-11T21:48:55.850Z,97627.53
2024-01-11T21:51:22.996Z,97630.19
2024-01-11T21:53:57.696Z,97622.03
2024-01-11T21:56:26.526Z,97622.06
2024-01-11T21:58:54.377Z,97624.75
2024-01-11T22:01:21.311Z,97626.16
2024-01-11T22:03:48.502Z,97611.66
2024-01-11T22:06:15.540Z,97608.50
2024-01-11T22:08:42.562Z,97609.31
2024-01-11T22:11:09.544Z,97603.97
2024-01-11T22:13:36.438Z,97594.44
2024-01-11T22:16:03.378Z,97592.09
2024-01-11T22:18:30.511Z,97591.63
2024-01-11T22:20:58.432Z,97595.50
2024-01-11T22:23:26.477Z,97600.78
2024-01-11T22:25:53.449Z,97600.09
2024-01-11T22:28:20.411Z,97595.03
2024-01-11T22:30:47.399Z,97581.53
2024-01-11T22:33:15.500Z,97582.19
2024-01-11T22:35:42.641Z,97576.56
2024-01-11T22:38:09.894Z,97587.00
2024-01-11T22:40:36.982Z,97580.41
2024-01-11T22:43:04.592Z,97587.41
2024-01-11T22:45:34.918Z,97596.72
2024-01-11T22:48:01.959Z,97585.59
2024-01-11T22:50:28.937Z,97574.66
2024-01-11T22:52:56.089Z,97582.81
2024-01-11T22:55:22.968Z,97581.00
2024-01-11T22:57:49.908Z,97584.47
2024-01-11T23:00:23.388Z,97584.34
2024-01-11T23:02:51.530Z,97581.78
2024-01-11T23:05:19.603Z,97575.25
2024-01-11T23:07:47.131Z,97569.13
2024-01-11T23:10:14.546Z,97563.66
2024-01-11T23:12:42.293Z,97570.28
2024-01-11T23:15:10.994Z,97571.69
2024-01-11T23:17:38.356Z,97580.28
2024-01-11T23:20:08.345Z,97581.84
2024-01-11T23:22:39.404Z,97587.19
2024-01-11T23:25:06.878Z,97590.91
2024-01-11T23:27:33.736Z,97589.94
2024-01-11T23:30:00.772Z,97579.75
2024-01-11T23:32:29.694Z,97570.94
2024-01-11T23:34:56.796Z,97567.31
2024-01-11T23:37:23.682Z,97558.97
2024-01-11T23:39:50.560Z,97570.88
2024-01-11T23:42:17.434Z,97571.47
2024-01-11T23:44:44.458Z,97568.06
2024-01-11T23:47:11.488Z,97566.78
2024-01-11T23:49:38.442Z,97567.16
2024-01-11T23:52:06.466Z,97568.56
2024-01-11T23:54:33.328Z,97573.34
2024-01-11T23:57:00.392Z,97571.16
2024-01-11T23:59:27.341Z,97577.84
